LIRF/FCO METAR and TAF weather

Enter ICAO airport designator
Station Type Date Time Source
LIRF METAR 2019/06/20 06:50 UTC NOAA

LIRF 200650Z VRB02KT CAVOK 24/20 Q1014 NOSIG


Station Type Date Time Source
LIRF Decoded METAR 2019/06/20 06:50 UTC NOAA

Roma Fiumicino, Italy (LIRF) 41-48N 012-14E 3M
Jun 20, 2019 - 02:50 AM EDT / 2019.06.20 0650 UTC
Wind: Variable at 2 MPH (2 KT):0
Visibility: greater than 7 mile(s):0
Temperature: 75 F (24 C)
Dew Point: 68 F (20 C)
Relative Humidity: 78%
Pressure (altimeter): 29.94 in. Hg (1014 hPa)
ob: LIRF 200650Z VRB02KT CAVOK 24/20 Q1014 NOSIG
cycle: 7

Station Type Date Time Source
LIRF TAF 2019/06/20 06:21 UTC NOAA

TAF LIRF 200500Z 2006/2112 VRB04KT CAVOK
BECMG 2008/2010 25010KT
BECMG 2018/2020 VRB04KT
TEMPO 2102/2105 0800 BCFG BKN010
BECMG 2108/2110 27010KT

Example: see airport list